createdAt,value
2019-01-12T00:00:16.147Z,100969.14
2019-01-12T00:05:12.056Z,100977.44
2019-01-12T00:10:08.069Z,100980.55
2019-01-12T00:15:05.973Z,100979.25
2019-01-12T00:20:06.773Z,100975.00
2019-01-12T00:25:05.500Z,100970.44
2019-01-12T00:30:01.524Z,100972.89
2019-01-12T00:34:57.433Z,100974.83
2019-01-12T00:39:53.417Z,100976.63
2019-01-12T00:44:49.320Z,100976.28
2019-01-12T00:49:45.960Z,100966.66
2019-01-12T00:54:42.027Z,100978.59
2019-01-12T00:59:37.941Z,100975.30
2019-01-12T01:04:33.855Z,100972.69
2019-01-12T01:09:29.854Z,100972.52
2019-01-12T01:14:25.776Z,100975.63
2019-01-12T01:19:24.373Z,100981.00
2019-01-12T01:24:20.393Z,100976.24
2019-01-12T01:29:16.421Z,100976.91
2019-01-12T01:34:12.336Z,100970.70
2019-01-12T01:39:08.369Z,100981.44
2019-01-12T01:44:04.483Z,100978.20
2019-01-12T01:49:06.733Z,100972.64
2019-01-12T01:54:03.092Z,100978.70
2019-01-12T01:58:58.986Z,100977.52
2019-01-12T02:03:54.916Z,100973.31
2019-01-12T02:08:50.821Z,100975.25
2019-01-12T02:13:46.795Z,100960.55
2019-01-12T02:18:45.719Z,100959.90
2019-01-12T02:23:41.826Z,100960.53
2019-01-12T02:28:37.736Z,100952.87
2019-01-12T02:33:33.659Z,100962.52
2019-01-12T02:38:29.554Z,100951.39
2019-01-12T02:43:25.460Z,100944.39
2019-01-12T02:48:21.413Z,100939.50
2019-01-12T02:53:17.314Z,100939.95
2019-01-12T02:58:13.252Z,100925.94
2019-01-12T03:03:09.158Z,100920.03
2019-01-12T03:08:05.164Z,100911.21
2019-01-12T03:13:01.065Z,100904.33
2019-01-12T03:17:56.973Z,100904.03
2019-01-12T03:22:52.907Z,100899.09
2019-01-12T03:27:48.806Z,100899.76
2019-01-12T03:32:44.717Z,100897.79
2019-01-12T03:37:40.634Z,100897.50
2019-01-12T03:42:36.720Z,100886.72
2019-01-12T03:47:32.619Z,100886.21
2019-01-12T03:52:28.516Z,100881.00
2019-01-12T03:57:24.675Z,100874.96
2019-01-12T04:02:20.594Z,100873.98
2019-01-12T04:07:16.526Z,100866.44
2019-01-12T04:12:12.451Z,100867.75
2019-01-12T04:17:08.379Z,100865.14
2019-01-12T04:22:04.304Z,100863.52
2019-01-12T04:27:00.246Z,100861.55
2019-01-12T04:31:56.183Z,100854.55
2019-01-12T04:36:52.093Z,100847.86
2019-01-12T04:41:48.101Z,100848.33
2019-01-12T04:46:44.011Z,100852.74
2019-01-12T04:51:39.947Z,100851.60
2019-01-12T04:56:35.976Z,100848.50
2019-01-12T05:01:31.891Z,100848.48
2019-01-12T05:06:27.810Z,100842.94
2019-01-12T05:11:23.747Z,100843.78
2019-01-12T05:16:19.670Z,100838.56
2019-01-12T05:21:15.595Z,100846.22
2019-01-12T05:26:11.522Z,100849.17
2019-01-12T05:31:07.467Z,100839.69
2019-01-12T05:36:03.399Z,100849.78
2019-01-12T05:40:59.314Z,100841.96
2019-01-12T05:45:55.246Z,100840.02
2019-01-12T05:50:51.202Z,100836.39
2019-01-12T05:55:47.119Z,100839.34
2019-01-12T06:00:43.042Z,100829.41
2019-01-12T06:05:38.962Z,100830.71
2019-01-12T06:10:35.221Z,100829.02
2019-01-12T06:15:31.145Z,100829.02
2019-01-12T06:20:27.178Z,100828.22
2019-01-12T06:25:23.176Z,100830.99
2019-01-12T06:30:19.099Z,100828.53
2019-01-12T06:35:15.027Z,100829.99
2019-01-12T06:40:15.122Z,100821.37
2019-01-12T06:45:13.366Z,100816.77
2019-01-12T06:50:18.108Z,100813.86
2019-01-12T06:55:14.189Z,100808.64
2019-01-12T07:00:13.078Z,100803.41
2019-01-12T07:05:09.088Z,100798.36
2019-01-12T07:10:08.178Z,100792.63
2019-01-12T07:15:06.912Z,100794.56
2019-01-12T07:20:07.110Z,100771.77
2019-01-12T07:25:04.246Z,100773.09
2019-01-12T07:30:00.230Z,100764.89
2019-01-12T07:34:56.129Z,100773.00
2019-01-12T07:39:52.439Z,100760.45
2019-01-12T07:44:48.513Z,100749.68
2019-01-12T07:49:45.302Z,100744.96
2019-01-12T07:54:41.423Z,100733.84
2019-01-12T07:59:37.396Z,100724.94
2019-01-12T08:04:33.417Z,100726.23
2019-01-12T08:09:29.348Z,100715.46
2019-01-12T08:14:26.306Z,100715.42
2019-01-12T08:19:24.649Z,100712.05
2019-01-12T08:24:20.649Z,100701.87
2019-01-12T08:29:16.587Z,100700.30
2019-01-12T08:34:12.702Z,100699.13
2019-01-12T08:39:08.628Z,100683.64
2019-01-12T08:44:04.714Z,100674.50
2019-01-12T08:49:05.800Z,100671.59
2019-01-12T08:54:01.914Z,100664.70
2019-01-12T08:58:57.914Z,100666.64
2019-01-12T09:03:53.819Z,100667.69
2019-01-12T09:08:49.727Z,100678.42
2019-01-12T09:13:45.682Z,100684.81
2019-01-12T09:18:41.704Z,100659.52
2019-01-12T09:23:37.608Z,100648.91
2019-01-12T09:28:33.567Z,100628.20
2019-01-12T09:33:29.492Z,100631.61
2019-01-12T09:38:25.416Z,100611.56
2019-01-12T09:43:21.323Z,100609.25
2019-01-12T09:48:17.245Z,100610.26
2019-01-12T09:53:13.174Z,100590.68
2019-01-12T09:58:09.109Z,100589.04
2019-01-12T10:03:05.134Z,100577.63
2019-01-12T10:08:01.029Z,100563.28
2019-01-12T10:12:56.966Z,100559.36
2019-01-12T10:17:52.975Z,100561.30
2019-01-12T10:22:49.002Z,100558.05
2019-01-12T10:27:45.000Z,100532.59
2019-01-12T10:32:41.051Z,100517.42
2019-01-12T10:37:37.030Z,100497.86
2019-01-12T10:42:32.951Z,100500.97
2019-01-12T10:47:28.947Z,100481.54
2019-01-12T10:52:25.958Z,100462.47
2019-01-12T10:57:21.992Z,100455.30
2019-01-12T11:02:17.909Z,100463.77
2019-01-12T11:07:16.346Z,100455.93
2019-01-12T11:12:12.282Z,100446.30
2019-01-12T11:17:08.193Z,100428.17
2019-01-12T11:22:04.290Z,100417.12
2019-01-12T11:27:00.403Z,100405.03
2019-01-12T11:31:56.356Z,100392.16
2019-01-12T11:36:52.278Z,100368.83
2019-01-12T11:41:48.204Z,100366.59
2019-01-12T11:46:44.111Z,100357.16
2019-01-12T11:51:41.471Z,100342.63
2019-01-12T11:56:37.778Z,100340.33
2019-01-12T12:01:33.795Z,100322.23
2019-01-12T12:06:29.818Z,100315.25
2019-01-12T12:11:25.743Z,100305.02
2019-01-12T12:16:21.650Z,100286.77
2019-01-12T12:21:17.613Z,100278.78
2019-01-12T12:26:14.755Z,100257.91
2019-01-12T12:31:10.677Z,100247.76
2019-01-12T12:36:06.618Z,100220.03
2019-01-12T12:41:03.179Z,100220.03
2019-01-12T12:45:59.200Z,100212.47
2019-01-12T12:50:55.265Z,100192.89
2019-01-12T12:55:51.193Z,100186.52
2019-01-12T13:00:47.119Z,100177.20
2019-01-12T13:05:43.047Z,100171.36
2019-01-12T13:10:39.016Z,100176.58
2019-01-12T13:15:35.059Z,100158.45
2019-01-12T13:20:30.997Z,100151.71
2019-01-12T13:25:27.005Z,100149.42
2019-01-12T13:30:23.950Z,100143.48
2019-01-12T13:35:20.136Z,100127.49
2019-01-12T13:40:18.358Z,100127.12
2019-01-12T13:45:16.491Z,100117.63
2019-01-12T13:50:18.825Z,100107.83
2019-01-12T13:55:15.370Z,100091.33
2019-01-12T14:00:24.026Z,100090.16
2019-01-12T14:05:20.128Z,100082.94
2019-01-12T14:10:18.094Z,100080.52
2019-01-12T14:15:16.492Z,100070.06
2019-01-12T14:20:23.918Z,100066.80
2019-01-12T14:25:19.879Z,100072.16
2019-01-12T14:30:17.856Z,100061.72
2019-01-12T14:35:15.767Z,100060.04
2019-01-12T14:40:14.687Z,100056.73
2019-01-12T14:45:13.934Z,100045.49
2019-01-12T14:50:15.547Z,100055.80
2019-01-12T14:55:14.174Z,100055.43
2019-01-12T15:00:15.456Z,100047.44
2019-01-12T15:05:13.869Z,100049.88
2019-01-12T15:10:15.003Z,100038.07
2019-01-12T15:15:14.059Z,100040.78
2019-01-12T15:20:18.333Z,100040.97
2019-01-12T15:25:14.450Z,100041.43
2019-01-12T15:30:13.970Z,100018.38
2019-01-12T15:35:15.450Z,100014.70
2019-01-12T15:40:14.394Z,100014.83
2019-01-12T15:45:13.154Z,100011.05
2019-01-12T15:50:17.748Z,99999.23
2019-01-12T15:55:16.033Z,99997.42
2019-01-12T16:00:18.133Z,99988.41
2019-01-12T16:05:14.209Z,99976.59
2019-01-12T16:10:11.205Z,99974.11
2019-01-12T16:15:10.792Z,99963.79
2019-01-12T16:20:13.126Z,99942.27
2019-01-12T16:25:09.873Z,99943.14
2019-01-12T16:30:20.147Z,99937.09
2019-01-12T16:35:17.027Z,99939.70
2019-01-12T16:40:21.058Z,99940.72
2019-01-12T16:45:18.485Z,99941.65
2019-01-12T16:50:16.781Z,99939.03
2019-01-12T16:55:15.336Z,99932.81
2019-01-12T17:00:17.328Z,99933.42
2019-01-12T17:05:13.525Z,99943.62
2019-01-12T17:10:12.759Z,99931.67
2019-01-12T17:15:11.181Z,99930.14
2019-01-12T17:20:17.501Z,99936.90
2019-01-12T17:25:14.025Z,99940.18
2019-01-12T17:30:16.092Z,99938.55
2019-01-12T17:35:12.556Z,99935.39
2019-01-12T17:40:16.508Z,99934.09
2019-01-12T17:45:14.883Z,99940.63
2019-01-12T17:50:19.766Z,99935.59
2019-01-12T17:55:17.956Z,99933.48
2019-01-12T18:00:18.194Z,99933.84
2019-01-12T18:05:14.301Z,99961.45
2019-01-12T18:10:12.333Z,100003.63
2019-01-12T18:15:15.222Z,99977.71
2019-01-12T18:20:15.525Z,99982.93
2019-01-12T18:25:11.895Z,99976.98
2019-01-12T18:30:17.083Z,99946.69
2019-01-12T18:35:13.005Z,99953.41
2019-01-12T18:40:11.736Z,99950.42
2019-01-12T18:45:10.459Z,99944.21
2019-01-12T18:50:18.079Z,99941.48
2019-01-12T18:55:14.144Z,99933.19
2019-01-12T19:00:20.929Z,99933.67
2019-01-12T19:05:17.231Z,99940.27
2019-01-12T19:10:14.653Z,99946.98
2019-01-12T19:15:19.820Z,99956.33
2019-01-12T19:20:21.523Z,99952.95
2019-01-12T19:25:21.341Z,99947.59
2019-01-12T19:30:21.002Z,99929.49
2019-01-12T19:35:19.839Z,99923.86
2019-01-12T19:40:22.473Z,99916.42
2019-01-12T19:45:20.109Z,99921.59
2019-01-12T19:50:20.160Z,99927.94
2019-01-12T19:55:17.118Z,99914.80
2019-01-12T20:00:19.666Z,99917.42
2019-01-12T20:05:16.836Z,99914.39
2019-01-12T20:10:14.694Z,99911.77
2019-01-12T20:15:13.900Z,99904.60
2019-01-12T20:20:12.183Z,99905.75
2019-01-12T20:25:11.007Z,99891.44
2019-01-12T20:30:16.774Z,99899.94
2019-01-12T20:35:33.877Z,99895.58
2019-01-12T20:40:42.344Z,99901.05
2019-01-12T20:45:54.171Z,99915.85
2019-01-12T20:51:15.261Z,99909.70
2019-01-12T20:56:24.194Z,99906.22
2019-01-12T21:01:51.921Z,99903.02
2019-01-12T21:07:03.567Z,99906.38
2019-01-12T21:12:27.411Z,99907.36
2019-01-12T21:17:23.413Z,99892.44
2019-01-12T21:22:19.438Z,99900.89
2019-01-12T21:27:15.871Z,99909.81
2019-01-12T21:32:11.868Z,99902.03
2019-01-12T21:37:07.861Z,99890.33
2019-01-12T21:42:03.933Z,99887.53
2019-01-12T21:46:59.969Z,99892.39
2019-01-12T21:51:55.890Z,99891.37
2019-01-12T21:56:51.859Z,99882.82
2019-01-12T22:01:47.839Z,99882.85
2019-01-12T22:06:43.984Z,99879.02
2019-01-12T22:11:40.093Z,99872.66
2019-01-12T22:16:38.766Z,99879.77
2019-01-12T22:21:35.440Z,99873.30
2019-01-12T22:26:31.363Z,99877.16
2019-01-12T22:31:27.983Z,99876.59
2019-01-12T22:36:24.075Z,99879.39
2019-01-12T22:41:20.639Z,99871.13
2019-01-12T22:46:16.557Z,99871.90
2019-01-12T22:51:13.192Z,99860.36
2019-01-12T22:56:09.185Z,99858.91
2019-01-12T23:01:12.483Z,99853.17
2019-01-12T23:06:09.463Z,99850.67
2019-01-12T23:11:05.678Z,99850.67
2019-01-12T23:16:01.700Z,99845.64
2019-01-12T23:20:57.762Z,99841.08
2019-01-12T23:25:53.998Z,99836.17
2019-01-12T23:30:49.935Z,99838.09
2019-01-12T23:35:45.835Z,99840.50
2019-01-12T23:40:41.838Z,99833.48
2019-01-12T23:45:37.853Z,99843.13
2019-01-12T23:50:33.853Z,99831.53
2019-01-12T23:55:29.952Z,99841.32
